createdAt,value
2019-06-27T00:00:17.576Z,0.00
2019-06-27T00:01:17.526Z,0.00
2019-06-27T00:02:17.522Z,0.00
2019-06-27T00:03:17.500Z,0.00
2019-06-27T00:04:17.494Z,0.00
2019-06-27T00:05:17.477Z,0.00
2019-06-27T00:06:17.483Z,0.00
2019-06-27T00:07:17.454Z,0.00
2019-06-27T00:08:17.457Z,0.00
2019-06-27T00:09:17.436Z,0.00
2019-06-27T00:10:17.434Z,0.00
2019-06-27T00:11:17.440Z,0.00
2019-06-27T00:12:17.405Z,0.00
2019-06-27T00:13:17.406Z,0.00
2019-06-27T00:14:17.441Z,0.00
2019-06-27T00:15:17.383Z,0.00
2019-06-27T00:16:17.421Z,0.00
2019-06-27T00:17:17.350Z,0.00
2019-06-27T00:18:17.335Z,0.00
2019-06-27T00:19:17.342Z,0.00
2019-06-27T00:20:17.314Z,0.00
2019-06-27T00:21:17.322Z,0.00
2019-06-27T00:22:17.327Z,0.00
2019-06-27T00:23:17.285Z,0.00
2019-06-27T00:24:17.275Z,0.00
2019-06-27T00:25:17.285Z,0.00
2019-06-27T00:26:17.254Z,0.00
2019-06-27T00:27:17.263Z,0.00
2019-06-27T00:28:17.229Z,0.00
2019-06-27T00:29:17.228Z,0.00
2019-06-27T00:30:17.244Z,0.00
2019-06-27T00:31:17.221Z,0.00
2019-06-27T00:32:17.231Z,0.00
2019-06-27T00:33:17.204Z,0.00
2019-06-27T00:34:17.168Z,0.00
2019-06-27T00:35:17.156Z,0.00
2019-06-27T00:36:17.153Z,0.00
2019-06-27T00:37:17.484Z,0.00
2019-06-27T00:38:17.143Z,0.00
2019-06-27T00:39:17.112Z,0.00
2019-06-27T00:40:17.107Z,0.00
2019-06-27T00:41:17.096Z,0.00
2019-06-27T00:42:17.092Z,0.00
2019-06-27T00:43:17.102Z,0.00
2019-06-27T00:44:17.069Z,0.00
2019-06-27T00:45:17.047Z,0.00
2019-06-27T00:46:17.060Z,0.00
2019-06-27T00:47:17.028Z,0.00
2019-06-27T00:48:17.035Z,0.00
2019-06-27T00:49:17.005Z,0.00
2019-06-27T00:50:17.001Z,0.00
2019-06-27T00:51:16.983Z,0.00
2019-06-27T00:52:16.976Z,0.00
2019-06-27T00:53:17.020Z,0.00
2019-06-27T00:54:16.965Z,0.00
2019-06-27T00:55:16.951Z,0.00
2019-06-27T00:56:16.947Z,0.00
2019-06-27T00:57:16.919Z,0.00
2019-06-27T00:58:16.906Z,0.00
2019-06-27T00:59:16.927Z,0.00
2019-06-27T01:00:16.885Z,0.00
2019-06-27T01:01:16.883Z,0.00
2019-06-27T01:02:16.876Z,0.00
2019-06-27T01:03:16.853Z,0.00
2019-06-27T01:04:16.865Z,0.00
2019-06-27T01:05:16.842Z,0.00
2019-06-27T01:06:16.824Z,0.00
2019-06-27T01:07:16.823Z,0.00
2019-06-27T01:08:16.819Z,0.00
2019-06-27T01:09:16.806Z,0.00
2019-06-27T01:10:16.780Z,0.00
2019-06-27T01:11:16.782Z,0.00
2019-06-27T01:12:16.756Z,0.00
2019-06-27T01:13:16.764Z,0.00
2019-06-27T01:14:16.797Z,0.00
2019-06-27T01:15:16.724Z,0.00
2019-06-27T01:16:16.718Z,0.00
2019-06-27T01:17:16.723Z,0.00
2019-06-27T01:18:16.694Z,0.00
2019-06-27T01:19:16.689Z,0.00
2019-06-27T01:20:16.708Z,0.00
2019-06-27T01:21:16.658Z,0.00
2019-06-27T01:22:16.654Z,0.00
2019-06-27T01:23:16.645Z,0.00
2019-06-27T01:24:16.636Z,0.00
2019-06-27T01:25:16.643Z,0.00
2019-06-27T01:26:16.607Z,0.00
2019-06-27T01:27:29.570Z,0.00
2019-06-27T01:28:16.599Z,0.00
2019-06-27T01:29:16.579Z,0.00
2019-06-27T01:30:16.613Z,0.00
2019-06-27T01:31:16.550Z,0.00
2019-06-27T01:32:16.551Z,0.00
2019-06-27T01:33:16.528Z,0.00
2019-06-27T01:34:16.532Z,0.00
2019-06-27T01:35:16.541Z,0.00
2019-06-27T01:36:16.516Z,0.00
2019-06-27T01:37:16.487Z,0.00
2019-06-27T01:38:16.474Z,0.00
2019-06-27T01:39:16.466Z,0.00
2019-06-27T01:40:16.474Z,0.00
2019-06-27T01:41:16.481Z,0.00
2019-06-27T01:42:16.444Z,0.00
2019-06-27T01:43:16.424Z,0.00
2019-06-27T01:44:16.409Z,0.00
2019-06-27T01:45:16.407Z,0.00
2019-06-27T01:46:16.432Z,0.00
2019-06-27T01:47:16.386Z,0.00
2019-06-27T01:48:16.424Z,0.00
2019-06-27T01:49:16.367Z,0.00
2019-06-27T01:50:16.348Z,0.00
2019-06-27T01:51:16.349Z,0.00
2019-06-27T01:52:16.355Z,0.00
2019-06-27T01:53:16.326Z,0.00
2019-06-27T01:54:16.300Z,0.00
2019-06-27T01:55:16.298Z,0.00
2019-06-27T01:56:16.279Z,0.00
2019-06-27T01:57:16.291Z,0.00
2019-06-27T01:58:16.266Z,0.00
2019-06-27T01:59:16.254Z,0.00
2019-06-27T02:00:16.241Z,0.00
2019-06-27T02:01:16.225Z,0.00
2019-06-27T02:02:16.282Z,0.00
2019-06-27T02:03:16.222Z,0.00
2019-06-27T02:04:16.195Z,0.00
2019-06-27T02:05:16.194Z,0.00
2019-06-27T02:06:16.264Z,0.00
2019-06-27T02:07:16.164Z,0.00
2019-06-27T02:08:16.182Z,0.00
2019-06-27T02:09:16.164Z,0.00
2019-06-27T02:10:16.140Z,0.00
2019-06-27T02:11:16.130Z,0.00
2019-06-27T02:12:16.108Z,0.00
2019-06-27T02:13:16.115Z,0.00
2019-06-27T02:14:16.094Z,0.00
2019-06-27T02:15:16.073Z,0.00
2019-06-27T02:16:16.076Z,0.00
2019-06-27T02:17:16.051Z,0.00
2019-06-27T02:18:16.090Z,0.00
2019-06-27T02:19:16.030Z,0.00
2019-06-27T02:20:16.033Z,0.00
2019-06-27T02:21:16.009Z,0.00
2019-06-27T02:22:16.005Z,0.00
2019-06-27T02:23:16.209Z,0.00
2019-06-27T02:24:15.996Z,0.00
2019-06-27T02:25:15.967Z,0.00
2019-06-27T02:26:15.968Z,0.00
2019-06-27T02:27:15.949Z,0.00
2019-06-27T02:28:15.942Z,4.00
2019-06-27T02:29:15.962Z,4.00
2019-06-27T02:30:15.910Z,0.00
2019-06-27T02:31:15.906Z,0.00
2019-06-27T02:32:15.903Z,0.00
2019-06-27T02:33:15.891Z,4.00
2019-06-27T02:34:15.903Z,0.00
2019-06-27T02:35:15.860Z,4.00
2019-06-27T02:36:15.853Z,4.00
2019-06-27T02:37:15.846Z,4.00
2019-06-27T02:38:15.828Z,4.00
2019-06-27T02:39:15.872Z,8.00
2019-06-27T02:40:15.804Z,4.00
2019-06-27T02:41:15.801Z,4.00
2019-06-27T02:42:15.781Z,8.00
2019-06-27T02:43:15.791Z,8.00
2019-06-27T02:44:15.766Z,8.00
2019-06-27T02:45:15.774Z,8.00
2019-06-27T02:46:15.740Z,8.00
2019-06-27T02:47:15.729Z,12.00
2019-06-27T02:48:15.717Z,12.00
2019-06-27T02:49:15.714Z,12.00
2019-06-27T02:50:15.717Z,12.00
2019-06-27T02:51:15.705Z,16.00
2019-06-27T02:52:15.675Z,12.00
2019-06-27T02:53:15.664Z,12.00
2019-06-27T02:54:15.659Z,16.00
2019-06-27T02:55:15.678Z,20.00
2019-06-27T02:56:15.647Z,20.00
2019-06-27T02:57:15.640Z,20.00
2019-06-27T02:58:29.965Z,20.00
2019-06-27T02:59:15.601Z,24.00
2019-06-27T03:00:15.633Z,24.00
2019-06-27T03:01:15.590Z,28.00
2019-06-27T03:02:15.585Z,28.00
2019-06-27T03:03:15.560Z,28.00
2019-06-27T03:04:15.553Z,28.00
2019-06-27T03:05:15.574Z,32.00
2019-06-27T03:06:15.539Z,32.00
2019-06-27T03:07:15.524Z,36.00
2019-06-27T03:08:15.517Z,40.00
2019-06-27T03:09:15.520Z,36.00
2019-06-27T03:10:15.730Z,40.00
2019-06-27T03:11:15.477Z,36.00
2019-06-27T03:12:15.474Z,28.00
2019-06-27T03:13:15.457Z,28.00
2019-06-27T03:14:15.462Z,28.00
2019-06-27T03:15:15.523Z,32.00
2019-06-27T03:16:15.420Z,32.00
2019-06-27T03:17:15.409Z,36.00
2019-06-27T03:18:15.406Z,36.00
2019-06-27T03:19:15.411Z,40.00
2019-06-27T03:20:15.393Z,40.00
2019-06-27T03:21:15.365Z,44.00
2019-06-27T03:22:15.350Z,44.00
2019-06-27T03:23:15.363Z,56.00
2019-06-27T03:24:15.381Z,44.00
2019-06-27T03:25:15.327Z,44.00
2019-06-27T03:26:15.311Z,44.00
2019-06-27T03:27:15.297Z,40.00
2019-06-27T03:28:15.286Z,40.00
2019-06-27T03:29:20.042Z,44.00
2019-06-27T03:30:16.306Z,44.00
2019-06-27T03:31:15.265Z,36.00
2019-06-27T03:32:15.279Z,36.00
2019-06-27T03:33:15.240Z,40.00
2019-06-27T03:34:15.224Z,52.00
2019-06-27T03:35:15.241Z,76.00
2019-06-27T03:36:15.233Z,104.00
2019-06-27T03:37:15.205Z,136.00
2019-06-27T03:38:15.211Z,144.00
2019-06-27T03:39:15.198Z,156.00
2019-06-27T03:40:15.176Z,160.00
2019-06-27T03:41:15.170Z,164.00
2019-06-27T03:42:15.140Z,168.00
2019-06-27T03:43:15.131Z,192.00
2019-06-27T03:44:15.156Z,172.00
2019-06-27T03:45:16.251Z,148.00
2019-06-27T03:46:15.102Z,140.00
2019-06-27T03:47:15.096Z,120.00
2019-06-27T03:48:15.075Z,100.00
2019-06-27T03:49:15.093Z,88.00
2019-06-27T03:50:15.049Z,84.00
2019-06-27T03:51:15.038Z,84.00
2019-06-27T03:52:15.047Z,92.00
2019-06-27T03:53:15.029Z,100.00
2019-06-27T03:54:15.054Z,116.00
2019-06-27T03:55:14.993Z,132.00
2019-06-27T03:56:14.994Z,152.00
2019-06-27T03:57:14.976Z,172.00
2019-06-27T03:58:14.977Z,172.00
2019-06-27T03:59:14.973Z,172.00
2019-06-27T04:00:14.970Z,176.00
2019-06-27T04:01:14.929Z,196.00
2019-06-27T04:02:14.934Z,192.00
2019-06-27T04:03:14.917Z,228.00
2019-06-27T04:04:14.905Z,204.00
2019-06-27T04:05:14.948Z,184.00
2019-06-27T04:06:14.899Z,172.00
2019-06-27T04:07:14.863Z,168.00
2019-06-27T04:08:14.851Z,168.00
2019-06-27T04:09:14.854Z,172.00
2019-06-27T04:10:17.213Z,180.00
2019-06-27T04:11:14.843Z,164.00
2019-06-27T04:12:14.808Z,180.00
2019-06-27T04:13:14.802Z,212.00
2019-06-27T04:14:14.786Z,256.00
2019-06-27T04:15:14.789Z,272.00
2019-06-27T04:16:14.811Z,360.00
2019-06-27T04:17:14.763Z,372.00
2019-06-27T04:18:14.748Z,376.00
2019-06-27T04:19:14.741Z,412.00
2019-06-27T04:20:14.728Z,412.00
2019-06-27T04:21:14.739Z,412.00
2019-06-27T04:22:17.634Z,400.00
2019-06-27T04:23:14.704Z,408.00
2019-06-27T04:24:14.780Z,412.00
2019-06-27T04:25:14.666Z,388.00
2019-06-27T04:26:14.663Z,372.00
2019-06-27T04:27:14.696Z,428.00
2019-06-27T04:28:14.666Z,468.00
2019-06-27T04:29:31.950Z,424.00
2019-06-27T04:30:14.619Z,396.00
2019-06-27T04:31:14.604Z,416.00
2019-06-27T04:32:14.612Z,408.00
2019-06-27T04:33:14.616Z,400.00
2019-06-27T04:34:19.385Z,348.00
2019-06-27T04:35:14.601Z,328.00
2019-06-27T04:36:14.582Z,320.00
2019-06-27T04:37:14.544Z,348.00
2019-06-27T04:38:14.552Z,344.00
2019-06-27T04:39:14.535Z,320.00
2019-06-27T04:40:14.519Z,328.00
2019-06-27T04:41:14.497Z,396.00
2019-06-27T04:42:14.492Z,372.00
2019-06-27T04:43:14.537Z,356.00
2019-06-27T04:44:14.465Z,316.00
2019-06-27T04:45:14.487Z,280.00
2019-06-27T04:46:14.452Z,308.00
2019-06-27T04:47:14.441Z,604.00
2019-06-27T04:48:14.418Z,612.00
2019-06-27T04:49:14.445Z,608.00
2019-06-27T04:50:14.400Z,616.00
2019-06-27T04:51:14.398Z,612.00
2019-06-27T04:52:14.373Z,612.00
2019-06-27T04:53:14.364Z,600.00
2019-06-27T04:54:14.376Z,592.00
2019-06-27T04:55:14.351Z,592.00
2019-06-27T04:56:14.329Z,616.00
2019-06-27T04:57:14.402Z,596.00
2019-06-27T04:58:14.319Z,588.00
2019-06-27T04:59:14.339Z,556.00
2019-06-27T05:00:14.290Z,544.00
2019-06-27T05:01:14.289Z,532.00
2019-06-27T05:02:14.267Z,540.00
2019-06-27T05:03:14.264Z,416.00
2019-06-27T05:04:14.275Z,600.00
2019-06-27T05:05:14.244Z,592.00
2019-06-27T05:06:14.223Z,596.00
2019-06-27T05:07:14.229Z,588.00
2019-06-27T05:08:14.991Z,420.00
2019-06-27T05:09:14.245Z,628.00
2019-06-27T05:10:14.191Z,468.00
2019-06-27T05:11:14.168Z,624.00
2019-06-27T05:12:14.163Z,704.00
2019-06-27T05:13:14.163Z,520.00
2019-06-27T05:14:14.166Z,528.00
2019-06-27T05:15:14.156Z,500.00
2019-06-27T05:16:14.113Z,472.00
2019-06-27T05:17:14.104Z,460.00
2019-06-27T05:18:14.099Z,480.00
2019-06-27T05:19:14.090Z,528.00
2019-06-27T05:20:14.100Z,568.00
2019-06-27T05:21:14.062Z,516.00
2019-06-27T05:22:14.053Z,452.00
2019-06-27T05:23:14.045Z,444.00
2019-06-27T05:24:14.038Z,476.00
2019-06-27T05:25:14.050Z,440.00
2019-06-27T05:26:14.037Z,684.00
2019-06-27T05:27:13.994Z,688.00
2019-06-27T05:28:13.995Z,608.00
2019-06-27T05:29:13.987Z,656.00
2019-06-27T05:30:14.022Z,404.00
2019-06-27T05:31:13.961Z,420.00
2019-06-27T05:32:13.960Z,568.00
2019-06-27T05:33:13.930Z,740.00
2019-06-27T05:34:13.921Z,704.00
2019-06-27T05:35:13.917Z,428.00
2019-06-27T05:36:13.926Z,704.00
2019-06-27T05:37:13.916Z,648.00
2019-06-27T05:38:13.890Z,700.00
2019-06-27T05:39:13.866Z,708.00
2019-06-27T05:40:13.852Z,696.00
2019-06-27T05:41:13.869Z,676.00
2019-06-27T05:42:13.841Z,680.00
2019-06-27T05:43:13.835Z,720.00
2019-06-27T05:44:13.956Z,728.00
2019-06-27T05:45:13.815Z,708.00
2019-06-27T05:46:13.853Z,704.00
2019-06-27T05:47:13.813Z,684.00
2019-06-27T05:48:13.768Z,672.00
2019-06-27T05:49:13.783Z,672.00
2019-06-27T05:50:13.749Z,696.00
2019-06-27T05:51:13.741Z,668.00
2019-06-27T05:52:13.745Z,672.00
2019-06-27T05:53:13.732Z,664.00
2019-06-27T05:54:13.704Z,664.00
2019-06-27T05:55:13.703Z,688.00
2019-06-27T05:56:13.683Z,700.00
2019-06-27T05:57:13.689Z,704.00
2019-06-27T05:58:13.661Z,684.00
2019-06-27T05:59:13.665Z,668.00
2019-06-27T06:00:27.658Z,656.00
2019-06-27T06:01:13.643Z,644.00
2019-06-27T06:02:13.672Z,636.00
2019-06-27T06:03:13.607Z,640.00
2019-06-27T06:04:13.603Z,644.00
2019-06-27T06:05:13.592Z,632.00
2019-06-27T06:06:13.582Z,640.00
2019-06-27T06:07:13.588Z,636.00
2019-06-27T06:08:13.595Z,640.00
2019-06-27T06:09:13.546Z,636.00
2019-06-27T06:10:13.551Z,628.00
2019-06-27T06:11:13.518Z,632.00
2019-06-27T06:12:13.521Z,624.00
2019-06-27T06:13:13.526Z,632.00
2019-06-27T06:14:13.488Z,612.00
2019-06-27T06:15:13.475Z,620.00
2019-06-27T06:16:13.476Z,616.00
2019-06-27T06:17:13.469Z,624.00
2019-06-27T06:18:13.507Z,612.00
2019-06-27T06:19:13.434Z,608.00
2019-06-27T06:20:13.435Z,608.00
2019-06-27T06:21:13.414Z,628.00
2019-06-27T06:22:13.416Z,592.00
2019-06-27T06:23:13.389Z,612.00
2019-06-27T06:24:13.422Z,616.00
2019-06-27T06:25:13.373Z,600.00
2019-06-27T06:26:13.408Z,588.00
2019-06-27T06:27:13.349Z,612.00
2019-06-27T06:28:13.366Z,612.00
2019-06-27T06:29:13.369Z,612.00
2019-06-27T06:30:13.328Z,616.00
2019-06-27T06:31:13.313Z,624.00
2019-06-27T06:32:13.359Z,608.00
2019-06-27T06:33:13.287Z,612.00
2019-06-27T06:34:13.327Z,604.00
2019-06-27T06:35:13.265Z,612.00
2019-06-27T06:36:13.319Z,612.00
2019-06-27T06:37:13.248Z,580.00
2019-06-27T06:38:13.239Z,608.00
2019-06-27T06:39:13.221Z,596.00
2019-06-27T06:40:13.233Z,600.00
2019-06-27T06:41:13.203Z,596.00
2019-06-27T06:42:13.212Z,596.00
2019-06-27T06:43:13.178Z,592.00
2019-06-27T06:44:13.189Z,588.00
2019-06-27T06:45:13.198Z,596.00
2019-06-27T06:46:13.144Z,604.00
2019-06-27T06:47:13.142Z,592.00
2019-06-27T06:48:13.135Z,584.00
2019-06-27T06:49:13.217Z,588.00
2019-06-27T06:50:13.166Z,584.00
2019-06-27T06:51:13.099Z,580.00
2019-06-27T06:52:13.083Z,580.00
2019-06-27T06:53:13.091Z,576.00
2019-06-27T06:54:13.086Z,576.00
2019-06-27T06:55:13.100Z,580.00
2019-06-27T06:56:13.061Z,576.00
2019-06-27T06:57:13.039Z,576.00
2019-06-27T06:58:13.056Z,572.00
2019-06-27T06:59:13.015Z,568.00
2019-06-27T07:00:12.995Z,564.00
2019-06-27T07:01:13.027Z,568.00
2019-06-27T07:02:12.978Z,568.00
2019-06-27T07:03:12.978Z,580.00
2019-06-27T07:04:12.956Z,568.00
2019-06-27T07:05:12.948Z,568.00
2019-06-27T07:06:12.974Z,568.00
2019-06-27T07:07:13.357Z,564.00
2019-06-27T07:08:12.909Z,568.00
2019-06-27T07:09:12.914Z,568.00
2019-06-27T07:10:12.904Z,564.00
2019-06-27T07:11:12.890Z,572.00
2019-06-27T07:12:12.901Z,568.00
2019-06-27T07:13:12.851Z,568.00
2019-06-27T07:14:12.856Z,568.00
2019-06-27T07:15:12.837Z,568.00
2019-06-27T07:16:12.899Z,568.00
2019-06-27T07:17:12.846Z,564.00
2019-06-27T07:18:12.803Z,568.00
2019-06-27T07:19:12.800Z,572.00
2019-06-27T07:20:12.790Z,572.00
2019-06-27T07:21:12.769Z,568.00
2019-06-27T07:22:12.832Z,568.00
2019-06-27T07:23:12.774Z,568.00
2019-06-27T07:24:12.763Z,564.00
2019-06-27T07:25:12.735Z,568.00
2019-06-27T07:26:12.744Z,564.00
2019-06-27T07:27:12.709Z,564.00
2019-06-27T07:28:12.722Z,564.00
2019-06-27T07:29:12.681Z,560.00
2019-06-27T07:30:12.669Z,560.00
2019-06-27T07:31:17.770Z,556.00
2019-06-27T07:32:12.672Z,560.00
2019-06-27T07:33:12.677Z,556.00
2019-06-27T07:34:12.643Z,556.00
2019-06-27T07:35:12.643Z,556.00
2019-06-27T07:36:12.616Z,556.00
2019-06-27T07:37:12.601Z,556.00
2019-06-27T07:38:12.635Z,556.00
2019-06-27T07:39:12.578Z,556.00
2019-06-27T07:40:12.579Z,548.00
2019-06-27T07:41:12.580Z,552.00
2019-06-27T07:42:12.558Z,556.00
2019-06-27T07:43:12.558Z,556.00
2019-06-27T07:44:13.171Z,556.00
2019-06-27T07:45:12.515Z,556.00
2019-06-27T07:46:24.674Z,560.00
2019-06-27T07:47:12.493Z,560.00
2019-06-27T07:48:12.491Z,560.00
2019-06-27T07:49:12.496Z,560.00
2019-06-27T07:50:12.453Z,556.00
2019-06-27T07:51:12.453Z,564.00
2019-06-27T07:52:12.450Z,564.00
2019-06-27T07:53:12.422Z,568.00
2019-06-27T07:54:12.477Z,568.00
2019-06-27T07:55:12.410Z,580.00
2019-06-27T07:56:12.389Z,568.00
2019-06-27T07:57:12.395Z,568.00
2019-06-27T07:58:12.391Z,572.00
2019-06-27T07:59:12.359Z,572.00
2019-06-27T08:00:12.366Z,576.00
2019-06-27T08:01:12.354Z,572.00
2019-06-27T08:02:15.996Z,576.00
2019-06-27T08:03:12.330Z,576.00
2019-06-27T08:04:12.301Z,576.00
2019-06-27T08:05:12.354Z,576.00
2019-06-27T08:06:12.290Z,572.00
2019-06-27T08:07:12.311Z,576.00
2019-06-27T08:08:12.261Z,576.00
2019-06-27T08:09:12.255Z,580.00
2019-06-27T08:10:12.287Z,576.00
2019-06-27T08:11:12.228Z,580.00
2019-06-27T08:12:12.222Z,580.00
2019-06-27T08:13:12.202Z,588.00
2019-06-27T08:14:12.202Z,584.00
2019-06-27T08:15:12.208Z,588.00
2019-06-27T08:16:12.205Z,596.00
2019-06-27T08:17:12.160Z,592.00
2019-06-27T08:18:12.166Z,596.00
2019-06-27T08:19:12.141Z,596.00
2019-06-27T08:20:12.140Z,596.00
2019-06-27T08:21:12.145Z,588.00
2019-06-27T08:22:12.106Z,596.00
2019-06-27T08:23:12.113Z,592.00
2019-06-27T08:24:12.104Z,596.00
2019-06-27T08:25:12.072Z,592.00
2019-06-27T08:26:12.123Z,600.00
2019-06-27T08:27:12.051Z,600.00
2019-06-27T08:28:12.045Z,600.00
2019-06-27T08:29:12.066Z,596.00
2019-06-27T08:30:12.032Z,592.00
2019-06-27T08:31:12.006Z,600.00
2019-06-27T08:32:12.017Z,600.00
2019-06-27T08:33:11.987Z,600.00
2019-06-27T08:34:11.978Z,600.00
2019-06-27T08:35:11.977Z,596.00
2019-06-27T08:36:11.956Z,600.00
2019-06-27T08:37:11.975Z,600.00
2019-06-27T08:38:11.957Z,596.00
2019-06-27T08:39:11.969Z,596.00
2019-06-27T08:40:11.915Z,600.00
2019-06-27T08:41:14.081Z,600.00
2019-06-27T08:42:11.930Z,612.00
2019-06-27T08:43:11.905Z,604.00
2019-06-27T08:44:11.896Z,608.00
2019-06-27T08:45:11.856Z,612.00
2019-06-27T08:46:12.002Z,620.00
2019-06-27T08:47:11.859Z,616.00
2019-06-27T08:48:11.847Z,612.00
2019-06-27T08:49:11.818Z,616.00
2019-06-27T08:50:11.814Z,624.00
2019-06-27T08:51:11.797Z,624.00
2019-06-27T08:52:11.795Z,628.00
2019-06-27T08:53:11.790Z,632.00
2019-06-27T08:54:11.795Z,632.00
2019-06-27T08:55:11.757Z,628.00
2019-06-27T08:56:11.732Z,636.00
2019-06-27T08:57:11.769Z,640.00
2019-06-27T08:58:11.779Z,640.00
2019-06-27T08:59:11.702Z,640.00
2019-06-27T09:00:11.698Z,636.00
2019-06-27T09:01:11.695Z,636.00
2019-06-27T09:02:11.674Z,636.00
2019-06-27T09:03:11.670Z,636.00
2019-06-27T09:04:11.717Z,636.00
2019-06-27T09:05:11.643Z,640.00
2019-06-27T09:06:11.650Z,640.00
2019-06-27T09:07:11.643Z,640.00
2019-06-27T09:08:11.608Z,636.00
2019-06-27T09:09:11.629Z,640.00
2019-06-27T09:10:11.591Z,640.00
2019-06-27T09:11:11.575Z,644.00
2019-06-27T09:12:11.761Z,640.00
2019-06-27T09:13:11.551Z,636.00
2019-06-27T09:14:11.591Z,636.00
2019-06-27T09:15:11.545Z,636.00
2019-06-27T09:16:11.529Z,636.00
2019-06-27T09:17:11.521Z,636.00
2019-06-27T09:18:11.512Z,636.00
2019-06-27T09:19:11.569Z,632.00
2019-06-27T09:20:11.527Z,636.00
2019-06-27T09:21:11.484Z,636.00
2019-06-27T09:22:11.451Z,636.00
2019-06-27T09:23:11.505Z,636.00
2019-06-27T09:24:11.448Z,636.00
2019-06-27T09:25:11.463Z,636.00
2019-06-27T09:26:11.413Z,636.00
2019-06-27T09:27:11.409Z,636.00
2019-06-27T09:28:11.390Z,628.00
2019-06-27T09:29:11.394Z,628.00
2019-06-27T09:30:11.492Z,632.00
2019-06-27T09:31:11.405Z,632.00
2019-06-27T09:32:24.875Z,628.00
2019-06-27T09:33:12.334Z,628.00
2019-06-27T09:34:11.384Z,632.00
2019-06-27T09:35:11.327Z,632.00
2019-06-27T09:36:11.361Z,640.00
2019-06-27T09:37:11.296Z,628.00
2019-06-27T09:38:11.292Z,632.00
2019-06-27T09:39:11.304Z,632.00
2019-06-27T09:40:11.270Z,636.00
2019-06-27T09:41:11.274Z,640.00
2019-06-27T09:42:11.237Z,640.00
2019-06-27T09:43:11.224Z,640.00
2019-06-27T09:44:11.214Z,640.00
2019-06-27T09:45:11.251Z,644.00
2019-06-27T09:46:11.249Z,640.00
2019-06-27T09:47:11.190Z,644.00
2019-06-27T09:48:11.173Z,648.00
2019-06-27T09:49:11.162Z,648.00
2019-06-27T09:50:11.150Z,648.00
2019-06-27T09:51:11.152Z,648.00
2019-06-27T09:52:11.160Z,648.00
2019-06-27T09:53:11.140Z,648.00
2019-06-27T09:54:11.108Z,648.00
2019-06-27T09:55:11.108Z,648.00
2019-06-27T09:56:11.086Z,652.00
2019-06-27T09:57:11.099Z,648.00
2019-06-27T09:58:11.074Z,652.00
2019-06-27T09:59:11.107Z,656.00
2019-06-27T10:00:11.055Z,652.00
2019-06-27T10:01:11.041Z,652.00
2019-06-27T10:02:11.097Z,656.00
2019-06-27T10:03:11.015Z,660.00
2019-06-27T10:04:11.009Z,656.00
2019-06-27T10:05:11.022Z,656.00
2019-06-27T10:06:10.983Z,664.00
2019-06-27T10:07:10.983Z,660.00
2019-06-27T10:08:10.995Z,660.00
2019-06-27T10:09:10.950Z,656.00
2019-06-27T10:10:11.001Z,668.00
2019-06-27T10:11:10.942Z,664.00
2019-06-27T10:12:10.956Z,664.00
2019-06-27T10:13:10.904Z,668.00
2019-06-27T10:14:10.905Z,668.00
2019-06-27T10:15:10.909Z,668.00
2019-06-27T10:16:10.899Z,668.00
2019-06-27T10:17:10.904Z,668.00
2019-06-27T10:18:10.854Z,672.00
2019-06-27T10:19:10.839Z,672.00
2019-06-27T10:20:10.842Z,672.00
2019-06-27T10:21:10.911Z,672.00
2019-06-27T10:22:10.831Z,676.00
2019-06-27T10:23:10.793Z,676.00
2019-06-27T10:24:10.787Z,680.00
2019-06-27T10:25:10.773Z,680.00
2019-06-27T10:26:10.817Z,684.00
2019-06-27T10:27:10.771Z,680.00
2019-06-27T10:28:10.759Z,680.00
2019-06-27T10:29:10.731Z,680.00
2019-06-27T10:30:10.729Z,684.00
2019-06-27T10:31:10.735Z,684.00
2019-06-27T10:32:10.736Z,688.00
2019-06-27T10:33:10.699Z,692.00
2019-06-27T10:34:10.700Z,688.00
2019-06-27T10:35:10.671Z,692.00
2019-06-27T10:36:10.667Z,692.00
2019-06-27T10:37:11.591Z,688.00
2019-06-27T10:38:10.634Z,692.00
2019-06-27T10:39:10.638Z,692.00
2019-06-27T10:40:10.626Z,688.00
2019-06-27T10:41:10.606Z,692.00
2019-06-27T10:42:10.624Z,696.00
2019-06-27T10:43:10.594Z,692.00
2019-06-27T10:44:10.577Z,692.00
2019-06-27T10:45:10.575Z,688.00
2019-06-27T10:46:10.598Z,688.00
2019-06-27T10:47:10.555Z,692.00
2019-06-27T10:48:10.525Z,692.00
2019-06-27T10:49:10.529Z,692.00
2019-06-27T10:50:10.506Z,696.00
2019-06-27T10:51:10.548Z,696.00
2019-06-27T10:52:10.483Z,696.00
2019-06-27T10:53:10.480Z,692.00
2019-06-27T10:54:10.467Z,700.00
2019-06-27T10:55:10.471Z,696.00
2019-06-27T10:56:10.445Z,700.00
2019-06-27T10:57:10.451Z,696.00
2019-06-27T10:58:10.424Z,696.00
2019-06-27T10:59:10.414Z,696.00
2019-06-27T11:00:10.431Z,696.00
2019-06-27T11:01:10.400Z,692.00
2019-06-27T11:02:10.421Z,696.00
2019-06-27T11:03:15.455Z,696.00
2019-06-27T11:04:11.355Z,704.00
2019-06-27T11:05:10.380Z,684.00
2019-06-27T11:06:10.338Z,688.00
2019-06-27T11:07:10.378Z,684.00
2019-06-27T11:08:10.322Z,684.00
2019-06-27T11:09:10.319Z,684.00
2019-06-27T11:10:10.302Z,688.00
2019-06-27T11:11:10.278Z,680.00
2019-06-27T11:12:10.273Z,680.00
2019-06-27T11:13:10.290Z,676.00
2019-06-27T11:14:10.267Z,676.00
2019-06-27T11:15:10.251Z,668.00
2019-06-27T11:16:10.242Z,672.00
2019-06-27T11:17:10.251Z,664.00
2019-06-27T11:18:10.214Z,660.00
2019-06-27T11:19:10.203Z,660.00
2019-06-27T11:20:10.204Z,656.00
2019-06-27T11:21:13.795Z,656.00
2019-06-27T11:22:10.554Z,656.00
2019-06-27T11:23:10.160Z,656.00
2019-06-27T11:24:10.159Z,656.00
2019-06-27T11:25:10.134Z,656.00
2019-06-27T11:26:10.200Z,656.00
2019-06-27T11:27:10.174Z,656.00
2019-06-27T11:28:10.421Z,652.00
2019-06-27T11:29:10.112Z,648.00
2019-06-27T11:30:10.090Z,648.00
2019-06-27T11:31:10.073Z,652.00
2019-06-27T11:32:10.096Z,652.00
2019-06-27T11:33:10.090Z,652.00
2019-06-27T11:34:10.089Z,656.00
2019-06-27T11:35:10.025Z,652.00
2019-06-27T11:36:10.014Z,648.00
2019-06-27T11:37:10.011Z,644.00
2019-06-27T11:38:10.017Z,640.00
2019-06-27T11:39:10.019Z,636.00
2019-06-27T11:40:12.218Z,632.00
2019-06-27T11:41:09.959Z,632.00
2019-06-27T11:42:09.945Z,628.00
2019-06-27T11:43:09.994Z,624.00
2019-06-27T11:44:09.962Z,624.00
2019-06-27T11:45:09.922Z,620.00
2019-06-27T11:46:09.908Z,616.00
2019-06-27T11:47:09.907Z,616.00
2019-06-27T11:48:09.888Z,616.00
2019-06-27T11:49:09.890Z,620.00
2019-06-27T11:50:10.050Z,620.00
2019-06-27T11:51:09.857Z,612.00
2019-06-27T11:52:09.843Z,616.00
2019-06-27T11:53:09.846Z,612.00
2019-06-27T11:54:09.850Z,612.00
2019-06-27T11:55:09.815Z,608.00
2019-06-27T11:56:09.802Z,604.00
2019-06-27T11:57:09.797Z,604.00
2019-06-27T11:58:09.777Z,600.00
2019-06-27T11:59:09.809Z,596.00
2019-06-27T12:00:09.757Z,592.00
2019-06-27T12:01:09.751Z,588.00
2019-06-27T12:02:09.746Z,604.00
2019-06-27T12:03:09.776Z,584.00
2019-06-27T12:04:09.712Z,588.00
2019-06-27T12:05:09.700Z,588.00
2019-06-27T12:06:09.705Z,580.00
2019-06-27T12:07:09.719Z,584.00
2019-06-27T12:08:11.045Z,584.00
2019-06-27T12:09:09.661Z,576.00
2019-06-27T12:10:09.647Z,576.00
2019-06-27T12:11:09.638Z,572.00
2019-06-27T12:12:09.634Z,572.00
2019-06-27T12:13:09.650Z,564.00
2019-06-27T12:14:09.607Z,560.00
2019-06-27T12:15:09.603Z,556.00
2019-06-27T12:16:09.586Z,556.00
2019-06-27T12:17:09.580Z,552.00
2019-06-27T12:18:09.584Z,552.00
2019-06-27T12:19:09.573Z,548.00
2019-06-27T12:20:09.547Z,552.00
2019-06-27T12:21:09.532Z,548.00
2019-06-27T12:22:09.531Z,548.00
2019-06-27T12:23:09.564Z,544.00
2019-06-27T12:24:09.517Z,544.00
2019-06-27T12:25:09.487Z,544.00
2019-06-27T12:26:09.492Z,544.00
2019-06-27T12:27:09.467Z,540.00
2019-06-27T12:28:09.460Z,540.00
2019-06-27T12:29:09.531Z,532.00
2019-06-27T12:30:09.516Z,532.00
2019-06-27T12:31:19.918Z,528.00
2019-06-27T12:32:09.429Z,524.00
2019-06-27T12:33:09.404Z,520.00
2019-06-27T12:34:09.409Z,524.00
2019-06-27T12:35:09.385Z,520.00
2019-06-27T12:36:09.377Z,516.00
2019-06-27T12:37:09.391Z,512.00
2019-06-27T12:38:09.367Z,516.00
2019-06-27T12:39:09.336Z,512.00
2019-06-27T12:40:09.338Z,516.00